createdAt,value
2024-05-09T00:00:30.387Z,72.92
2024-05-09T00:01:22.952Z,73.03
2024-05-09T00:02:23.088Z,73.33
2024-05-09T00:03:22.921Z,73.13
2024-05-09T00:04:22.919Z,73.33
2024-05-09T00:05:22.965Z,73.03
2024-05-09T00:06:22.856Z,73.16
2024-05-09T00:07:22.922Z,73.16
2024-05-09T00:08:22.884Z,72.96
2024-05-09T00:09:22.827Z,72.65
2024-05-09T00:10:29.256Z,72.75
2024-05-09T00:11:23.036Z,72.65
2024-05-09T00:12:23.093Z,72.86
2024-05-09T00:13:22.797Z,72.86
2024-05-09T00:14:22.872Z,72.75
2024-05-09T00:15:22.755Z,73.27
2024-05-09T00:16:22.752Z,73.47
2024-05-09T00:17:22.936Z,73.57
2024-05-09T00:18:22.917Z,73.47
2024-05-09T00:19:22.941Z,73.78
2024-05-09T00:20:28.540Z,73.68
2024-05-09T00:21:22.683Z,73.47
2024-05-09T00:22:22.706Z,73.57
2024-05-09T00:23:22.741Z,73.47
2024-05-09T00:24:22.674Z,73.57
2024-05-09T00:25:22.648Z,73.57
2024-05-09T00:26:22.752Z,73.68
2024-05-09T00:27:22.627Z,73.36
2024-05-09T00:28:22.623Z,73.06
2024-05-09T00:29:22.665Z,73.06
2024-05-09T00:30:31.595Z,73.27
2024-05-09T00:31:22.589Z,73.20
2024-05-09T00:32:22.671Z,73.40
2024-05-09T00:33:22.770Z,73.61
2024-05-09T00:34:22.647Z,73.61
2024-05-09T00:35:22.660Z,73.71
2024-05-09T00:36:22.522Z,73.71
2024-05-09T00:37:22.538Z,73.30
2024-05-09T00:38:22.565Z,73.30
2024-05-09T00:39:22.563Z,73.61
2024-05-09T00:40:30.927Z,73.91
2024-05-09T00:41:22.520Z,74.11
2024-05-09T00:42:22.464Z,74.32
2024-05-09T00:43:22.465Z,74.46
2024-05-09T00:44:22.490Z,74.84
2024-05-09T00:45:22.470Z,74.22
2024-05-09T00:46:22.467Z,74.53
2024-05-09T00:47:22.660Z,74.63
2024-05-09T00:48:22.555Z,74.97
2024-05-09T00:49:22.564Z,75.18
2024-05-09T00:50:29.841Z,75.14
2024-05-09T00:51:22.386Z,75.04
2024-05-09T00:52:22.393Z,75.07
2024-05-09T00:53:22.395Z,74.66
2024-05-09T00:54:22.318Z,74.56
2024-05-09T00:55:22.316Z,74.36
2024-05-09T00:56:22.442Z,74.36
2024-05-09T00:57:22.321Z,74.36
2024-05-09T00:58:22.323Z,74.46
2024-05-09T00:59:22.326Z,74.36
2024-05-09T01:00:30.724Z,74.46
2024-05-09T01:01:22.283Z,74.26
2024-05-09T01:02:22.308Z,74.26
2024-05-09T01:03:22.774Z,74.46
2024-05-09T01:04:22.270Z,74.66
2024-05-09T01:05:22.251Z,74.87
2024-05-09T01:06:22.211Z,74.77
2024-05-09T01:07:22.188Z,74.77
2024-05-09T01:08:22.231Z,74.36
2024-05-09T01:09:22.178Z,74.56
2024-05-09T01:10:28.147Z,74.87
2024-05-09T01:11:22.232Z,75.07
2024-05-09T01:12:22.209Z,75.28
2024-05-09T01:13:22.137Z,75.59
2024-05-09T01:14:22.187Z,75.69
2024-05-09T01:15:22.144Z,75.48
2024-05-09T01:16:22.113Z,75.93
2024-05-09T01:17:22.281Z,76.14
2024-05-09T01:18:22.223Z,75.93
2024-05-09T01:19:22.225Z,76.03
2024-05-09T01:20:31.815Z,75.82
2024-05-09T01:21:22.084Z,75.59
2024-05-09T01:22:22.190Z,75.52
2024-05-09T01:23:22.109Z,75.48
2024-05-09T01:24:22.044Z,75.48
2024-05-09T01:25:22.015Z,75.38
2024-05-09T01:26:22.063Z,75.21
2024-05-09T01:27:21.980Z,75.31
2024-05-09T01:28:21.974Z,75.42
2024-05-09T01:29:22.011Z,75.42
2024-05-09T01:30:31.198Z,75.52
2024-05-09T01:31:21.953Z,75.21
2024-05-09T01:32:22.308Z,75.42
2024-05-09T01:33:22.138Z,75.52
2024-05-09T01:34:22.093Z,75.73
2024-05-09T01:35:22.012Z,75.73
2024-05-09T01:36:21.875Z,75.93
2024-05-09T01:37:21.866Z,76.14
2024-05-09T01:38:21.936Z,76.24
2024-05-09T01:39:21.846Z,76.34
2024-05-09T01:40:28.680Z,76.54
2024-05-09T01:41:21.877Z,76.75
2024-05-09T01:42:21.849Z,77.20
2024-05-09T01:43:21.804Z,77.40
2024-05-09T01:44:21.845Z,77.40
2024-05-09T01:45:21.824Z,77.61
2024-05-09T01:46:21.784Z,77.61
2024-05-09T01:47:21.891Z,77.71
2024-05-09T01:48:21.978Z,77.71
2024-05-09T01:49:21.884Z,77.81
2024-05-09T01:50:33.222Z,78.02
2024-05-09T01:51:21.758Z,77.81
2024-05-09T01:52:21.719Z,77.61
2024-05-09T01:53:21.852Z,77.61
2024-05-09T01:54:21.693Z,77.50
2024-05-09T01:55:21.672Z,77.20
2024-05-09T01:56:21.761Z,77.50
2024-05-09T01:57:21.651Z,77.20
2024-05-09T01:58:21.667Z,77.20
2024-05-09T01:59:21.716Z,77.23
2024-05-09T02:00:30.283Z,77.44
2024-05-09T02:01:21.643Z,77.84
2024-05-09T02:02:21.810Z,77.88
2024-05-09T02:03:21.757Z,77.98
2024-05-09T02:04:21.822Z,78.09
2024-05-09T02:05:21.692Z,78.39
2024-05-09T02:06:21.554Z,78.60
2024-05-09T02:07:21.558Z,78.70
2024-05-09T02:08:22.141Z,78.91
2024-05-09T02:09:21.540Z,78.91
2024-05-09T02:10:26.488Z,78.60
2024-05-09T02:11:21.567Z,78.70
2024-05-09T02:12:21.617Z,78.60
2024-05-09T02:13:21.509Z,78.60
2024-05-09T02:14:21.523Z,78.39
2024-05-09T02:15:21.457Z,77.98
2024-05-09T02:16:21.484Z,78.29
2024-05-09T02:17:21.576Z,78.19
2024-05-09T02:18:21.598Z,77.84
2024-05-09T02:19:21.614Z,77.78
2024-05-09T02:21:21.415Z,77.68
2024-05-09T02:22:21.431Z,77.78
2024-05-09T02:23:21.472Z,77.68
2024-05-09T02:24:21.374Z,77.68
2024-05-09T02:25:21.360Z,77.88
2024-05-09T02:26:21.394Z,77.78
2024-05-09T02:27:21.340Z,77.78
2024-05-09T02:28:21.350Z,77.78
2024-05-09T02:29:21.451Z,77.88
2024-05-09T02:30:29.971Z,77.78
2024-05-09T02:31:21.326Z,77.88
2024-05-09T02:32:21.419Z,77.68
2024-05-09T02:33:21.779Z,77.88
2024-05-09T02:34:21.363Z,77.58
2024-05-09T02:35:21.307Z,77.58
2024-05-09T02:36:21.251Z,77.88
2024-05-09T02:37:21.245Z,77.98
2024-05-09T02:38:21.345Z,77.88
2024-05-09T02:39:21.204Z,77.78
2024-05-09T02:40:28.929Z,78.12
2024-05-09T02:41:21.303Z,78.19
2024-05-09T02:42:21.181Z,77.92
2024-05-09T02:43:21.171Z,77.98
2024-05-09T02:44:21.272Z,78.09
2024-05-09T02:45:21.241Z,77.88
2024-05-09T02:46:21.154Z,77.78
2024-05-09T02:47:21.428Z,77.68
2024-05-09T02:48:21.447Z,77.47
2024-05-09T02:49:21.449Z,77.26
2024-05-09T02:50:29.738Z,77.26
2024-05-09T02:51:21.284Z,77.37
2024-05-09T02:52:21.178Z,77.68
2024-05-09T02:53:21.142Z,77.81
2024-05-09T02:54:21.146Z,78.43
2024-05-09T02:55:21.123Z,78.64
2024-05-09T02:56:21.216Z,78.94
2024-05-09T02:57:21.030Z,79.19
2024-05-09T02:58:21.006Z,79.60
2024-05-09T02:59:21.170Z,80.01
2024-05-09T03:00:26.451Z,80.11
2024-05-09T03:01:21.145Z,80.01
2024-05-09T03:02:21.070Z,79.80
2024-05-09T03:03:21.150Z,79.70
2024-05-09T03:04:21.058Z,79.80
2024-05-09T03:05:20.950Z,79.80
2024-05-09T03:06:20.939Z,79.70
2024-05-09T03:07:20.960Z,79.60
2024-05-09T03:08:20.885Z,79.49
2024-05-09T03:09:20.893Z,79.49
2024-05-09T03:10:25.612Z,79.39
2024-05-09T03:11:20.997Z,79.39
2024-05-09T03:12:20.935Z,79.39
2024-05-09T03:13:20.852Z,79.39
2024-05-09T03:14:20.874Z,79.39
2024-05-09T03:15:20.855Z,79.49
2024-05-09T03:16:20.843Z,79.49
2024-05-09T03:17:20.829Z,79.70
2024-05-09T03:18:20.837Z,79.80
2024-05-09T03:19:20.836Z,80.01
2024-05-09T03:20:24.267Z,80.11
2024-05-09T03:21:20.727Z,80.11
2024-05-09T03:22:20.708Z,79.80
2024-05-09T03:23:20.788Z,79.91
2024-05-09T03:24:20.692Z,80.01
2024-05-09T03:25:20.685Z,79.91
2024-05-09T03:26:20.737Z,80.21
2024-05-09T03:27:20.652Z,80.11
2024-05-09T03:28:20.660Z,80.25
2024-05-09T03:29:20.700Z,80.32
2024-05-09T03:30:29.604Z,79.94
2024-05-09T03:31:20.636Z,80.01
2024-05-09T03:32:20.677Z,80.11
2024-05-09T03:33:21.284Z,80.01
2024-05-09T03:34:20.728Z,79.70
2024-05-09T03:35:20.603Z,79.74
2024-05-09T03:36:20.576Z,80.05
2024-05-09T03:37:20.544Z,80.05
2024-05-09T03:38:20.580Z,80.15
2024-05-09T03:39:20.526Z,80.15
2024-05-09T03:40:23.886Z,80.05
2024-05-09T03:41:20.545Z,80.05
2024-05-09T03:42:20.527Z,79.84
2024-05-09T03:43:20.481Z,79.94
2024-05-09T03:44:20.545Z,79.94
2024-05-09T03:45:20.465Z,79.94
2024-05-09T03:46:20.450Z,79.94
2024-05-09T03:47:20.583Z,80.05
2024-05-09T03:48:20.639Z,80.05
2024-05-09T03:49:20.499Z,80.35
2024-05-09T03:50:26.351Z,80.35
2024-05-09T03:51:20.483Z,80.46
2024-05-09T03:52:20.392Z,80.56
2024-05-09T03:53:20.404Z,80.35
2024-05-09T03:54:20.419Z,80.15
2024-05-09T03:55:20.364Z,80.25
2024-05-09T03:56:20.414Z,80.25
2024-05-09T03:57:20.389Z,80.15
2024-05-09T03:58:20.357Z,80.25
2024-05-09T03:59:20.355Z,80.66
2024-05-09T04:00:30.415Z,80.35
2024-05-09T04:01:20.397Z,80.46
2024-05-09T04:02:20.329Z,80.35
2024-05-09T04:03:20.649Z,80.46
2024-05-09T04:04:20.338Z,80.35
2024-05-09T04:05:20.318Z,80.66
2024-05-09T04:06:20.282Z,80.91
2024-05-09T04:07:20.259Z,81.01
2024-05-09T04:08:20.288Z,81.28
2024-05-09T04:09:20.208Z,81.11
2024-05-09T04:10:27.755Z,81.32
2024-05-09T04:11:20.349Z,80.97
2024-05-09T04:12:20.280Z,80.87
2024-05-09T04:13:20.191Z,80.66
2024-05-09T04:14:20.341Z,80.46
2024-05-09T04:15:20.153Z,80.46
2024-05-09T04:16:20.160Z,80.35
2024-05-09T04:17:20.239Z,80.25
2024-05-09T04:18:20.190Z,80.15
2024-05-09T04:19:20.363Z,80.25
2024-05-09T04:20:29.310Z,80.46
2024-05-09T04:21:20.112Z,80.66
2024-05-09T04:22:20.077Z,80.77
2024-05-09T04:23:20.184Z,80.73
2024-05-09T04:24:20.067Z,80.52
2024-05-09T04:25:20.058Z,80.42
2024-05-09T04:26:20.082Z,80.42
2024-05-09T04:27:20.028Z,80.63
2024-05-09T04:28:20.036Z,80.63
2024-05-09T04:29:20.136Z,80.93
2024-05-09T04:30:26.477Z,80.93
2024-05-09T04:31:19.996Z,81.04
2024-05-09T04:32:20.085Z,81.34
2024-05-09T04:33:20.406Z,81.24
2024-05-09T04:34:20.023Z,81.14
2024-05-09T04:35:20.054Z,81.04
2024-05-09T04:36:19.960Z,81.04
2024-05-09T04:37:19.916Z,80.79
2024-05-09T04:38:20.030Z,80.58
2024-05-09T04:39:19.911Z,80.69
2024-05-09T04:40:28.118Z,80.58
2024-05-09T04:41:19.946Z,80.49
2024-05-09T04:42:19.874Z,80.38
2024-05-09T04:43:19.850Z,80.18
2024-05-09T04:44:19.880Z,80.07
2024-05-09T04:45:19.860Z,79.77
2024-05-09T04:46:19.829Z,79.63
2024-05-09T04:47:20.042Z,79.32
2024-05-09T04:48:20.011Z,79.42
2024-05-09T04:49:20.020Z,79.52
2024-05-09T04:50:29.326Z,79.52
2024-05-09T04:51:19.806Z,79.52
2024-05-09T04:52:19.757Z,79.52
2024-05-09T04:53:19.793Z,79.52
2024-05-09T04:54:30.074Z,79.52
2024-05-09T04:55:19.745Z,79.42
2024-05-09T04:56:19.806Z,79.32
2024-05-09T04:57:19.736Z,79.32
2024-05-09T04:58:19.720Z,79.63
2024-05-09T04:59:19.725Z,79.22
2024-05-09T05:00:28.463Z,79.28
2024-05-09T05:01:19.706Z,79.28
2024-05-09T05:02:19.843Z,79.18
2024-05-09T05:03:20.018Z,79.28
2024-05-09T05:04:19.741Z,78.97
2024-05-09T05:05:19.770Z,78.97
2024-05-09T05:06:19.617Z,78.97
2024-05-09T05:07:19.601Z,79.18
2024-05-09T05:08:19.938Z,78.87
2024-05-09T05:09:19.607Z,78.77
2024-05-09T05:10:25.455Z,78.67
2024-05-09T05:11:19.751Z,78.97
2024-05-09T05:12:19.666Z,78.97
2024-05-09T05:13:21.096Z,79.18
2024-05-09T05:14:19.758Z,79.08
2024-05-09T05:15:19.517Z,78.97
2024-05-09T05:16:19.514Z,78.77
2024-05-09T05:17:19.619Z,78.63
2024-05-09T05:18:19.884Z,78.42
2024-05-09T05:19:19.604Z,78.22
2024-05-09T05:20:27.402Z,78.42
2024-05-09T05:21:19.628Z,78.32
2024-05-09T05:22:19.448Z,78.32
2024-05-09T05:23:19.605Z,78.39
2024-05-09T05:24:19.452Z,78.28
2024-05-09T05:25:19.426Z,78.28
2024-05-09T05:26:19.483Z,78.28
2024-05-09T05:27:19.391Z,78.08
2024-05-09T05:28:19.401Z,77.57
2024-05-09T05:29:20.993Z,77.53
2024-05-09T05:30:25.062Z,77.64
2024-05-09T05:31:19.384Z,77.33
2024-05-09T05:32:19.631Z,77.43
2024-05-09T05:33:19.975Z,77.53
2024-05-09T05:34:19.340Z,77.23
2024-05-09T05:35:19.374Z,77.12
2024-05-09T05:36:19.290Z,77.43
2024-05-09T05:37:19.281Z,77.12
2024-05-09T05:38:21.945Z,76.92
2024-05-09T05:39:19.315Z,76.92
2024-05-09T05:40:28.138Z,76.72
2024-05-09T05:41:19.298Z,76.57
2024-05-09T05:42:19.253Z,76.47
2024-05-09T05:43:19.244Z,76.47
2024-05-09T05:44:19.266Z,76.27
2024-05-09T05:45:19.227Z,76.17
2024-05-09T05:46:19.200Z,75.93
2024-05-09T05:47:19.244Z,75.62
2024-05-09T05:48:19.414Z,75.72
2024-05-09T05:49:19.276Z,75.42
2024-05-09T05:50:27.355Z,75.31
2024-05-09T05:51:19.215Z,75.31
2024-05-09T05:52:19.143Z,75.52
2024-05-09T05:53:19.162Z,75.21
2024-05-09T05:54:19.138Z,75.07
2024-05-09T05:55:19.096Z,75.27
2024-05-09T05:56:19.127Z,75.07
2024-05-09T05:57:19.080Z,74.97
2024-05-09T05:58:19.064Z,75.17
2024-05-09T05:59:19.081Z,74.76
2024-05-09T06:00:29.178Z,74.66
2024-05-09T06:01:19.104Z,74.46
2024-05-09T06:02:19.364Z,74.46
2024-05-09T06:03:19.031Z,74.73
2024-05-09T06:04:19.077Z,74.02
2024-05-09T06:05:19.041Z,74.02
2024-05-09T06:06:18.976Z,73.81
2024-05-09T06:07:18.979Z,73.81
2024-05-09T06:08:19.025Z,73.71
2024-05-09T06:09:19.002Z,73.40
2024-05-09T06:10:25.374Z,73.91
2024-05-09T06:11:19.053Z,73.50
2024-05-09T06:12:19.060Z,73.40
2024-05-09T06:13:18.918Z,73.61
2024-05-09T06:14:18.938Z,73.47
2024-05-09T06:15:18.909Z,72.96
2024-05-09T06:16:18.885Z,72.65
2024-05-09T06:17:19.010Z,72.55
2024-05-09T06:18:19.214Z,72.65
2024-05-09T06:19:18.940Z,72.75
2024-05-09T06:20:24.025Z,72.86
2024-05-09T06:21:19.006Z,72.75
2024-05-09T06:22:18.823Z,72.45
2024-05-09T06:23:18.844Z,72.24
2024-05-09T06:24:18.796Z,72.45
2024-05-09T06:25:18.775Z,72.45
2024-05-09T06:26:18.839Z,73.06
2024-05-09T06:27:18.765Z,72.86
2024-05-09T06:28:18.747Z,73.06
2024-05-09T06:29:18.790Z,72.92
2024-05-09T06:30:25.599Z,72.41
2024-05-09T06:31:18.724Z,72.11
2024-05-09T06:32:18.830Z,72.41
2024-05-09T06:33:18.952Z,72.11
2024-05-09T06:34:18.954Z,72.00
2024-05-09T06:35:18.766Z,72.17
2024-05-09T06:36:18.707Z,71.97
2024-05-09T06:37:18.677Z,71.36
2024-05-09T06:38:18.681Z,69.93
2024-05-09T06:39:18.643Z,70.54
2024-05-09T06:40:25.466Z,70.85
2024-05-09T06:41:18.701Z,70.85
2024-05-09T06:42:18.595Z,70.85
2024-05-09T06:43:19.745Z,70.95
2024-05-09T06:44:18.670Z,71.67
2024-05-09T06:45:18.579Z,71.63
2024-05-09T06:46:18.558Z,71.43
2024-05-09T06:47:18.610Z,70.81
2024-05-09T06:48:19.305Z,70.61
2024-05-09T06:49:18.739Z,70.81
2024-05-09T06:50:23.932Z,70.92
2024-05-09T06:51:18.568Z,70.78
2024-05-09T06:52:18.498Z,70.37
2024-05-09T06:53:18.588Z,70.07
2024-05-09T06:54:18.480Z,70.27
2024-05-09T06:55:18.499Z,70.07
2024-05-09T06:56:18.500Z,70.17
2024-05-09T06:57:18.438Z,70.07
2024-05-09T06:58:18.439Z,70.07
2024-05-09T06:59:18.520Z,70.14
2024-05-09T07:00:26.912Z,70.14
2024-05-09T07:01:18.450Z,70.65
2024-05-09T07:02:18.485Z,70.44
2024-05-09T07:03:19.492Z,70.24
2024-05-09T07:04:18.450Z,70.41
2024-05-09T07:05:18.452Z,68.37
2024-05-09T07:06:18.456Z,67.15
2024-05-09T07:07:18.377Z,67.46
2024-05-09T07:08:18.543Z,67.35
2024-05-09T07:09:18.326Z,67.96
2024-05-09T07:10:25.579Z,68.48
2024-05-09T07:11:18.443Z,68.27
2024-05-09T07:12:18.458Z,68.13
2024-05-09T07:13:18.281Z,68.54
2024-05-09T07:14:18.307Z,68.34
2024-05-09T07:15:18.242Z,68.65
2024-05-09T07:16:18.258Z,68.13
2024-05-09T07:17:18.316Z,68.65
2024-05-09T07:18:19.299Z,66.71
2024-05-09T07:19:18.332Z,67.02
2024-05-09T07:20:23.734Z,67.08
2024-05-09T07:21:18.310Z,66.88
2024-05-09T07:22:18.175Z,67.60
2024-05-09T07:23:18.444Z,66.88
2024-05-09T07:24:18.165Z,66.88
2024-05-09T07:25:18.187Z,66.17
2024-05-09T07:26:18.350Z,65.66
2024-05-09T07:27:18.127Z,65.97
2024-05-09T07:28:18.220Z,66.24
2024-05-09T07:29:18.222Z,66.35
2024-05-09T07:30:23.572Z,65.73
2024-05-09T07:31:18.101Z,65.53
2024-05-09T07:32:18.202Z,65.63
2024-05-09T07:33:18.383Z,65.53
2024-05-09T07:34:18.144Z,65.70
2024-05-09T07:35:18.114Z,65.70
2024-05-09T07:36:18.068Z,64.58
2024-05-09T07:37:18.019Z,64.99
2024-05-09T07:38:18.076Z,64.07
2024-05-09T07:39:17.992Z,64.28
2024-05-09T07:40:28.170Z,64.38
2024-05-09T07:41:18.012Z,64.25
2024-05-09T07:42:17.995Z,63.64
2024-05-09T07:43:17.949Z,62.72
2024-05-09T07:44:17.977Z,61.91
2024-05-09T07:45:39.658Z,61.51
2024-05-09T07:47:14.348Z,61.30
2024-05-09T07:50:34.261Z,61.60
2024-05-09T07:53:32.454Z,61.27
2024-05-09T07:53:49.304Z,60.56
2024-05-09T07:54:00.441Z,60.66
2024-05-09T07:54:56.290Z,59.31
2024-05-09T07:55:56.642Z,58.40
2024-05-09T07:56:56.183Z,59.59
2024-05-09T07:57:55.974Z,59.08
2024-05-09T07:58:56.364Z,59.28
2024-05-09T07:59:55.930Z,59.46
2024-05-09T08:00:56.063Z,58.65
2024-05-09T08:01:56.056Z,58.04
2024-05-09T08:02:55.988Z,57.93
2024-05-09T08:03:56.136Z,57.84
2024-05-09T08:04:55.959Z,58.14
2024-05-09T08:05:55.861Z,56.70
2024-05-09T08:06:55.865Z,56.59
2024-05-09T08:07:55.819Z,57.30
2024-05-09T08:08:56.060Z,57.48
2024-05-09T08:09:55.909Z,57.58
2024-05-09T08:10:55.873Z,55.45
2024-05-09T08:11:55.899Z,56.26
2024-05-09T08:12:55.826Z,56.67
2024-05-09T08:13:55.792Z,54.94
2024-05-09T08:14:55.762Z,55.65
2024-05-09T08:15:55.826Z,55.85
2024-05-09T08:16:55.787Z,56.26
2024-05-09T08:17:56.018Z,56.46
2024-05-09T08:18:55.792Z,55.65
2024-05-09T08:19:55.702Z,55.65
2024-05-09T08:20:55.734Z,55.76
2024-05-09T08:21:55.731Z,55.96
2024-05-09T08:22:55.664Z,56.05
2024-05-09T08:23:55.672Z,55.25
2024-05-09T08:24:55.767Z,55.35
2024-05-09T08:25:55.709Z,55.45
2024-05-09T08:26:55.641Z,55.55
2024-05-09T08:27:55.700Z,55.76
2024-05-09T08:28:55.597Z,55.93
2024-05-09T08:29:55.709Z,55.43
2024-05-09T08:30:55.761Z,55.12
2024-05-09T08:31:55.633Z,54.92
2024-05-09T08:32:55.766Z,54.21
2024-05-09T08:33:55.753Z,54.00
2024-05-09T08:34:55.660Z,54.00
2024-05-09T08:35:55.548Z,54.31
2024-05-09T08:36:57.549Z,53.60
2024-05-09T08:37:55.644Z,52.99
2024-05-09T08:38:55.497Z,53.98
2024-05-09T08:39:55.663Z,51.75
2024-05-09T08:40:55.623Z,52.06
2024-05-09T08:41:55.473Z,51.25
2024-05-09T08:42:55.522Z,50.34
2024-05-09T08:43:55.432Z,51.02
2024-05-09T08:44:55.446Z,49.80
2024-05-09T08:45:55.455Z,50.82
2024-05-09T08:46:55.440Z,50.89
2024-05-09T08:47:55.649Z,50.89
2024-05-09T08:48:55.594Z,50.69
2024-05-09T08:49:55.463Z,50.18
2024-05-09T08:50:55.430Z,50.49
2024-05-09T08:51:55.450Z,50.38
2024-05-09T08:52:55.370Z,48.36
2024-05-09T08:53:55.344Z,47.94
2024-05-09T08:54:55.387Z,47.53
2024-05-09T08:55:55.335Z,47.63
2024-05-09T08:56:55.311Z,47.94
2024-05-09T08:57:55.382Z,48.24
2024-05-09T08:58:55.328Z,48.34
2024-05-09T08:59:55.291Z,48.54
2024-05-09T09:00:55.482Z,48.65
2024-05-09T09:01:55.430Z,49.86
2024-05-09T09:02:55.325Z,50.37
2024-05-09T09:03:55.419Z,49.96
2024-05-09T09:04:55.336Z,48.65
2024-05-09T09:05:55.208Z,49.43
2024-05-09T09:06:58.179Z,49.43
2024-05-09T09:07:55.194Z,48.42
2024-05-09T09:08:55.194Z,49.02
2024-05-09T09:09:55.228Z,49.22
2024-05-09T09:10:55.281Z,49.53
2024-05-09T09:11:55.265Z,49.63
2024-05-09T09:12:55.192Z,48.22
2024-05-09T09:13:55.161Z,48.52
2024-05-09T09:14:55.121Z,47.99
2024-05-09T09:15:55.130Z,48.10
2024-05-09T09:16:55.109Z,48.39
2024-05-09T09:17:55.251Z,49.01
2024-05-09T09:18:55.257Z,48.60
2024-05-09T09:19:55.125Z,48.70
2024-05-09T09:20:55.275Z,50.01
2024-05-09T09:21:55.089Z,49.71
2024-05-09T09:22:55.027Z,48.98
2024-05-09T09:23:55.017Z,48.98
2024-05-09T09:24:55.034Z,49.08
2024-05-09T09:25:55.008Z,49.28
2024-05-09T09:26:54.989Z,49.30
2024-05-09T09:27:55.152Z,48.90
2024-05-09T09:28:54.975Z,48.70
2024-05-09T09:29:54.951Z,48.90
2024-05-09T09:30:54.975Z,49.21
2024-05-09T09:31:54.940Z,49.51
2024-05-09T09:32:55.049Z,49.61
2024-05-09T09:33:55.247Z,50.12
2024-05-09T09:34:55.090Z,49.58
2024-05-09T09:35:54.892Z,48.78
2024-05-09T09:36:54.938Z,49.08
2024-05-09T09:37:54.895Z,49.99
2024-05-09T09:38:54.899Z,49.99
2024-05-09T09:39:54.856Z,48.68
2024-05-09T09:40:54.928Z,47.97
2024-05-09T09:41:54.820Z,47.87
2024-05-09T09:42:54.869Z,48.78
2024-05-09T09:43:54.814Z,48.98
2024-05-09T09:45:03.762Z,50.09
2024-05-09T09:45:54.843Z,49.79
2024-05-09T09:46:54.797Z,49.18
2024-05-09T09:47:54.867Z,48.68
2024-05-09T09:48:54.896Z,49.36
2024-05-09T09:49:54.827Z,49.36
2024-05-09T09:50:54.723Z,49.46
2024-05-09T09:51:54.759Z,49.76
2024-05-09T09:52:54.718Z,49.46
2024-05-09T09:53:54.716Z,49.05
2024-05-09T09:54:55.030Z,49.96
2024-05-09T09:55:54.692Z,50.16
2024-05-09T09:56:54.676Z,48.85
2024-05-09T09:57:54.691Z,48.35
2024-05-09T09:58:54.650Z,49.46
2024-05-09T09:59:54.626Z,48.35
2024-05-09T10:00:54.854Z,48.35
2024-05-09T10:01:54.714Z,48.73
2024-05-09T10:02:54.637Z,49.16
2024-05-09T10:03:54.760Z,49.74
2024-05-09T10:04:54.746Z,48.53
2024-05-09T10:05:54.662Z,48.22
2024-05-09T10:06:54.669Z,47.92
2024-05-09T10:07:54.545Z,48.83
2024-05-09T10:08:54.579Z,49.01
2024-05-09T10:09:54.544Z,48.00
2024-05-09T10:10:54.725Z,48.10
2024-05-09T10:11:59.853Z,48.41
2024-05-09T10:12:54.564Z,48.41
2024-05-09T10:13:54.502Z,47.50
2024-05-09T10:14:54.507Z,47.70
2024-05-09T10:15:54.836Z,48.10
2024-05-09T10:16:54.472Z,48.81
2024-05-09T10:17:54.762Z,48.30
2024-05-09T10:18:54.633Z,47.80
2024-05-09T10:19:54.517Z,47.50
2024-05-09T10:20:54.454Z,48.10
2024-05-09T10:21:54.439Z,48.30
2024-05-09T10:22:54.415Z,49.52
2024-05-09T10:23:54.379Z,49.41
2024-05-09T10:24:54.423Z,48.41
2024-05-09T10:25:54.353Z,48.50
2024-05-09T10:26:54.363Z,49.01
2024-05-09T10:27:54.480Z,49.31
2024-05-09T10:28:54.320Z,48.71
2024-05-09T10:29:54.332Z,48.58
2024-05-09T10:30:54.360Z,49.09
2024-05-09T10:31:54.384Z,48.91
2024-05-09T10:32:54.361Z,49.41
2024-05-09T10:33:54.443Z,48.81
2024-05-09T10:34:54.258Z,48.30
2024-05-09T10:35:54.257Z,49.01
2024-05-09T10:36:54.335Z,49.41
2024-05-09T10:37:54.222Z,49.52
2024-05-09T10:38:54.233Z,49.62
2024-05-09T10:39:54.274Z,49.62
2024-05-09T10:40:54.203Z,48.53
2024-05-09T10:41:54.209Z,49.62
2024-05-09T10:42:54.245Z,48.81
2024-05-09T10:43:54.172Z,49.24
2024-05-09T10:44:54.182Z,47.32
2024-05-09T10:45:54.265Z,47.72
2024-05-09T10:46:54.176Z,47.30
2024-05-09T10:47:54.423Z,47.60
2024-05-09T10:48:54.323Z,47.80
2024-05-09T10:49:54.229Z,47.50
2024-05-09T10:50:54.118Z,51.61
2024-05-09T10:51:54.166Z,47.88
2024-05-09T10:52:54.065Z,47.78
2024-05-09T10:53:54.069Z,45.03
2024-05-09T10:54:54.143Z,45.03
2024-05-09T10:55:54.045Z,45.26
2024-05-09T10:56:54.044Z,45.56
2024-05-09T10:57:54.063Z,46.67
2024-05-09T10:58:54.005Z,47.96
2024-05-09T10:59:54.024Z,50.37
2024-05-09T11:00:54.117Z,48.16
2024-05-09T11:01:54.142Z,48.56
2024-05-09T11:02:54.027Z,48.46
2024-05-09T11:03:54.215Z,48.56
2024-05-09T11:04:54.177Z,48.06
2024-05-09T11:05:54.049Z,47.66
2024-05-09T11:06:53.997Z,47.55
2024-05-09T11:07:53.975Z,47.96
2024-05-09T11:08:53.901Z,47.86
2024-05-09T11:09:53.946Z,47.17
2024-05-09T11:10:53.990Z,47.88
2024-05-09T11:11:53.922Z,48.28
2024-05-09T11:12:53.935Z,45.97
2024-05-09T11:13:53.878Z,45.98
2024-05-09T11:14:53.821Z,46.59
2024-05-09T11:15:53.928Z,46.59
2024-05-09T11:16:53.806Z,46.99
2024-05-09T11:17:53.902Z,46.29
2024-05-09T11:18:53.980Z,46.39
2024-05-09T11:19:53.872Z,46.09
2024-05-09T11:20:53.777Z,46.49
2024-05-09T11:21:53.810Z,45.89
2024-05-09T11:22:53.746Z,46.29
2024-05-09T11:23:53.752Z,46.67
2024-05-09T11:24:53.761Z,46.37
2024-05-09T11:25:53.757Z,44.65
2024-05-09T11:26:53.698Z,45.06
2024-05-09T11:27:53.769Z,45.06
2024-05-09T11:28:53.674Z,46.14
2024-05-09T11:29:53.750Z,46.04
2024-05-09T11:30:53.710Z,44.73
2024-05-09T11:31:53.783Z,45.94
2024-05-09T11:32:53.748Z,45.42
2024-05-09T11:33:53.800Z,45.92
2024-05-09T11:34:53.666Z,45.62
2024-05-09T11:35:53.615Z,46.60
2024-05-09T11:36:53.701Z,46.88
2024-05-09T11:37:53.615Z,46.38
2024-05-09T11:38:53.568Z,44.17
2024-05-09T11:39:53.683Z,44.47
2024-05-09T11:40:53.712Z,45.47
2024-05-09T11:41:53.545Z,45.67
2024-05-09T11:42:53.722Z,45.67
2024-05-09T11:43:53.525Z,44.37
2024-05-09T11:44:53.520Z,44.37
2024-05-09T11:45:53.702Z,45.78
2024-05-09T11:46:53.531Z,45.78
2024-05-09T11:47:53.625Z,45.67
2024-05-09T11:48:53.751Z,44.47
2024-05-09T11:49:53.595Z,45.07
2024-05-09T11:50:53.464Z,44.09
2024-05-09T11:51:53.547Z,44.89
2024-05-09T11:52:53.453Z,45.19
2024-05-09T11:53:53.433Z,45.72
2024-05-09T11:54:53.507Z,45.92
2024-05-09T11:55:53.419Z,46.33
2024-05-09T11:56:53.401Z,46.33
2024-05-09T11:57:53.479Z,44.21
2024-05-09T11:58:53.399Z,44.21
2024-05-09T11:59:53.368Z,44.11
2024-05-09T12:00:53.516Z,44.71
2024-05-09T12:01:53.548Z,45.12
2024-05-09T12:02:53.342Z,45.92
2024-05-09T12:03:53.546Z,44.81
2024-05-09T12:04:53.447Z,44.71
2024-05-09T12:05:53.399Z,44.31
2024-05-09T12:06:53.311Z,44.29
2024-05-09T12:07:53.279Z,43.79
2024-05-09T12:08:53.300Z,43.88
2024-05-09T12:09:53.332Z,43.18
2024-05-09T12:10:53.608Z,43.56
2024-05-09T12:11:53.455Z,43.87
2024-05-09T12:12:53.296Z,43.56
2024-05-09T12:13:53.222Z,43.76
2024-05-09T12:14:53.192Z,43.26
2024-05-09T12:15:53.287Z,43.87
2024-05-09T12:16:53.226Z,44.27
2024-05-09T12:17:53.325Z,44.37
2024-05-09T12:18:53.314Z,44.47
2024-05-09T12:19:53.152Z,45.07
2024-05-09T12:20:53.136Z,44.87
2024-05-09T12:21:53.195Z,44.57
2024-05-09T12:22:53.104Z,43.56
2024-05-09T12:23:53.137Z,44.27
2024-05-09T12:24:53.164Z,44.39
2024-05-09T12:25:53.088Z,43.88
2024-05-09T12:26:53.076Z,43.38
2024-05-09T12:27:53.156Z,44.69
2024-05-09T12:28:53.056Z,44.67
2024-05-09T12:29:53.044Z,45.07
2024-05-09T12:30:53.056Z,43.87
2024-05-09T12:31:53.118Z,43.96
2024-05-09T12:32:53.266Z,43.16
2024-05-09T12:33:53.060Z,43.76
2024-05-09T12:34:53.140Z,44.07
2024-05-09T12:35:52.983Z,43.56
2024-05-09T12:36:52.999Z,44.27
2024-05-09T12:37:52.954Z,43.16
2024-05-09T12:38:52.933Z,43.54
2024-05-09T12:39:52.983Z,42.84
2024-05-09T12:40:53.161Z,43.04
2024-05-09T12:41:52.897Z,43.14
2024-05-09T12:42:52.960Z,43.54
2024-05-09T12:43:52.901Z,43.95
2024-05-09T12:44:52.895Z,44.24
2024-05-09T12:45:52.895Z,43.34
2024-05-09T12:46:52.888Z,43.44
2024-05-09T12:47:52.901Z,44.02
2024-05-09T12:48:53.095Z,43.52
2024-05-09T12:49:52.847Z,42.41
2024-05-09T12:50:52.849Z,41.71
2024-05-09T12:51:52.878Z,41.21
2024-05-09T12:52:52.827Z,41.79
2024-05-09T12:53:52.773Z,41.89
2024-05-09T12:54:52.807Z,42.10
2024-05-09T12:55:57.002Z,40.99
2024-05-09T12:56:52.788Z,40.97